Time;durP1;ratioP1;P1;durP2;ratioP2;P2;SDS_P1;SDS_P2;PMS_P1;PMS_P2;Temp;Humidity;BMP_temperature;BMP_pressure;BME280_temperature;BME280_humidity;BME280_pressure;Samples;Min_cycle;Max_cycle;Signal;HPM_P1;HPM_P2
2022/04/26 03:39:04;;;;;;;68.35;20.77;;;6.30;99.90;;;;;;12504886;28;20080;-37
2022/04/26 03:45:06;;;;;;;51.50;19.83;;;6.20;99.90;;;;;;12497606;28;20701;-38
2022/04/26 03:51:08;;;;;;;53.85;19.00;;;6.10;99.90;;;;;;12498474;28;20045;-36
2022/04/26 03:57:11;;;;;;;122.70;19.63;;;6.10;99.90;;;;;;12497968;28;20500;-38
2022/04/26 04:03:13;;;;;;;303.70;19.92;;;6.10;99.90;;;;;;12495800;28;20055;-37
2022/04/26 04:09:15;;;;;;;230.55;17.10;;;6.00;99.90;;;;;;12496378;28;20099;-38
2022/04/26 04:15:17;;;;;;;116.70;16.90;;;5.90;99.90;;;;;;12496379;28;20603;-38
2022/04/26 04:21:19;;;;;;;250.57;15.68;;;5.70;99.90;;;;;;12496686;28;20049;-37
2022/04/26 04:27:22;;;;;;;288.83;20.83;;;5.70;99.90;;;;;;12501397;28;20143;-37
2022/04/26 04:33:24;;;;;;;244.70;16.80;;;5.70;99.90;;;;;;12493590;28;20045;-37
2022/04/26 04:39:27;;;;;;;234.98;15.23;;;5.70;99.90;;;;;;12490523;28;20053;-36
2022/04/26 04:45:29;;;;;;;163.95;15.02;;;5.60;99.90;;;;;;12490952;28;20045;-38
2022/04/26 04:51:32;;;;;;;143.82;13.50;;;5.60;99.90;;;;;;12495868;28;20064;-37
2022/04/26 04:57:34;;;;;;;102.28;12.23;;;5.50;99.90;;;;;;12494318;28;20111;-39
2022/04/26 05:03:36;;;;;;;29.63;10.95;;;5.50;99.90;;;;;;12488004;28;20462;-38
2022/04/26 05:09:38;;;;;;;18.70;10.95;;;5.50;99.90;;;;;;12490185;28;20588;-37
2022/04/26 05:15:44;;;;;;;16.20;10.98;;;5.70;99.90;;;;;;12490036;28;20055;-37
2022/04/26 05:21:46;;;;;;;15.27;10.98;;;5.90;99.90;;;;;;12486317;28;20041;-41
2022/04/26 05:27:48;;;;;;;15.80;12.18;;;6.70;99.90;;;;;;12488291;28;20175;-38
2022/04/26 05:33:50;;;;;;;23.98;15.85;;;7.30;99.90;;;;;;12491775;28;20137;-38
2022/04/26 05:39:53;;;;;;;23.95;16.20;;;7.80;99.90;;;;;;12488131;28;20052;-37
2022/04/26 05:45:54;;;;;;;27.30;17.27;;;8.70;99.90;;;;;;12488006;28;20045;-38
2022/04/26 05:51:56;;;;;;;22.75;16.02;;;9.50;99.90;;;;;;12492464;28;20076;-37
2022/04/26 05:57:58;;;;;;;15.45;12.32;;;10.00;99.90;;;;;;12491984;28;20555;-37
2022/04/26 06:04:00;;;;;;;21.58;15.98;;;9.90;99.90;;;;;;12489516;28;20041;-37
2022/04/26 06:10:05;;;;;;;;;;;9.80;99.90;;;;;;12497142;28;20076;-37
2022/04/26 06:16:07;;;;;;;57.92;15.90;;;8.80;99.90;;;;;;12490864;28;20371;-38
2022/04/26 06:22:09;;;;;;;52.38;18.15;;;8.50;99.90;;;;;;12487853;28;20051;-38
2022/04/26 06:28:11;;;;;;;194.45;19.30;;;8.30;99.90;;;;;;12489226;28;20136;-38
2022/04/26 06:34:13;;;;;;;188.07;18.70;;;8.00;99.90;;;;;;12487453;28;20405;-37
2022/04/26 06:40:15;;;;;;;153.05;17.23;;;7.70;99.90;;;;;;12489382;28;20056;-39
2022/04/26 06:46:18;;;;;;;128.57;13.52;;;7.50;99.90;;;;;;12485849;28;20091;-39
2022/04/26 06:52:20;;;;;;;197.65;19.52;;;7.60;99.90;;;;;;12486048;28;20153;-39
2022/04/26 06:58:23;;;;;;;315.80;21.50;;;7.80;99.90;;;;;;12483463;28;20052;-38
2022/04/26 07:04:25;;;;;;;54.20;16.50;;;7.90;99.90;;;;;;12492859;28;20050;-38
2022/04/26 07:10:31;;;;;;;42.90;20.05;;;8.40;99.90;;;;;;12500138;28;20080;-37
2022/04/26 07:16:33;;;;;;;25.75;18.15;;;8.60;99.90;;;;;;12499805;28;20132;-39
2022/04/26 07:22:36;;;;;;;26.17;16.92;;;8.90;99.90;;;;;;12503490;28;20073;-39
2022/04/26 07:28:38;;;;;;;24.73;17.80;;;9.20;99.90;;;;;;12499987;28;20076;-38
2022/04/26 07:34:40;;;;;;;19.65;14.93;;;9.30;99.90;;;;;;12498106;28;20041;-38
2022/04/26 07:40:43;;;;;;;28.30;17.67;;;9.20;99.90;;;;;;12498274;28;20050;-37
2022/04/26 07:46:47;;;;;;;24.17;17.48;;;9.40;99.90;;;;;;12496173;28;20049;-39
2022/04/26 07:52:49;;;;;;;22.10;17.02;;;9.60;99.90;;;;;;12501447;28;20072;-37
2022/04/26 07:58:52;;;;;;;24.10;17.52;;;9.60;99.90;;;;;;12497851;28;20052;-37
2022/04/26 08:05:00;;;;;;;28.67;18.15;;;9.70;99.90;;;;;;12495297;28;20072;-39
2022/04/26 08:11:03;;;;;;;24.58;17.85;;;9.60;99.90;;;;;;12492287;28;20521;-39
2022/04/26 08:17:06;;;;;;;27.63;19.30;;;9.90;99.90;;;;;;12501178;28;20091;-39
2022/04/26 08:23:10;;;;;;;30.17;21.02;;;10.30;99.90;;;;;;12496004;28;20390;-38
2022/04/26 08:29:15;;;;;;;26.53;19.73;;;10.50;99.90;;;;;;12500143;28;20634;-37
2022/04/26 08:35:20;;;;;;;29.48;21.15;;;11.00;99.90;;;;;;12493524;28;20203;-39
2022/04/26 08:41:23;;;;;;;31.75;22.92;;;11.00;99.90;;;;;;12493339;28;20045;-37
2022/04/26 08:53:48;;;;;;;29.67;22.58;;;11.80;99.90;;;;;;12490674;28;20376;-40
2022/04/26 08:59:52;;;;;;;30.92;21.23;;;11.80;99.90;;;;;;12495999;28;20053;-37
2022/04/26 09:06:13;;;;;;;24.98;19.50;;;12.00;99.90;;;;;;12494040;28;20130;-38
2022/04/26 09:12:15;;;;;;;29.60;21.42;;;12.30;99.90;;;;;;12491573;28;21023;-38
2022/04/26 09:18:30;;;;;;;34.35;24.75;;;12.70;99.90;;;;;;12502357;28;20123;-39
2022/04/26 09:24:59;;;;;;;35.05;25.38;;;12.40;99.90;;;;;;12492962;28;20077;-37
2022/04/26 09:31:24;;;;;;;35.15;25.67;;;12.30;99.90;;;;;;12492441;28;20127;-40
2022/04/26 09:37:29;;;;;;;31.17;23.75;;;12.90;99.90;;;;;;12494144;28;20057;-36
2022/04/26 09:43:32;;;;;;;30.40;20.92;;;13.20;99.90;;;;;;12497151;28;20151;-36
2022/04/26 09:49:38;;;;;;;23.77;18.50;;;13.10;99.90;;;;;;12495538;28;20080;-37
2022/04/26 09:55:42;;;;;;;21.77;15.05;;;13.40;99.90;;;;;;12494045;28;20065;-37
2022/04/26 10:01:47;;;;;;;22.88;16.92;;;13.20;99.90;;;;;;12489851;28;20413;-35
2022/04/26 10:07:56;;;;;;;24.35;18.17;;;13.50;99.90;;;;;;12490060;28;20095;-36
2022/04/26 10:14:02;;;;;;;20.90;15.50;;;13.90;99.90;;;;;;12489060;28;20053;-36
2022/04/26 10:20:05;;;;;;;18.35;14.25;;;14.40;99.90;;;;;;12489460;28;20490;-37
2022/04/26 10:26:22;;;;;;;15.27;11.17;;;15.00;99.90;;;;;;12497320;28;20049;-37
2022/04/26 10:32:38;;;;;;;16.50;11.90;;;15.60;99.90;;;;;;12487550;28;20055;-37
2022/04/26 10:38:40;;;;;;;16.75;12.88;;;15.80;99.90;;;;;;12496414;28;20088;-38
2022/04/26 10:44:44;;;;;;;15.27;11.55;;;15.50;99.90;;;;;;12505240;28;20069;-37
2022/04/26 10:50:46;;;;;;;;;;;15.50;99.90;;;;;;12501931;28;20041;-37
2022/04/26 10:56:48;;;;;;;16.92;11.75;;;15.10;99.90;;;;;;12502642;28;19928;-36
2022/04/26 11:02:50;;;;;;;15.88;11.40;;;14.70;99.90;;;;;;12498474;28;20543;-38
2022/04/26 11:09:14;;;;;;;14.32;11.63;;;15.10;99.90;;;;;;12496897;28;20048;-38
2022/04/26 11:15:21;;;;;;;14.40;11.32;;;15.10;99.90;;;;;;12495057;28;20144;-37
2022/04/26 11:21:24;;;;;;;14.43;11.25;;;14.50;99.90;;;;;;12495937;28;20744;-37
2022/04/26 11:33:54;;;;;;;14.00;9.98;;;15.50;99.90;;;;;;12497796;28;20191;-38
2022/04/26 11:39:56;;;;;;;12.43;8.57;;;15.50;99.90;;;;;;12495186;28;20147;-36
2022/04/26 11:45:59;;;;;;;9.80;7.80;;;14.80;99.90;;;;;;12488748;28;20129;-37
2022/04/26 11:52:01;;;;;;;11.50;7.50;;;14.80;99.90;;;;;;12493213;28;20087;-38
2022/04/26 11:58:16;;;;;;;8.13;6.35;;;15.60;99.90;;;;;;12493206;28;20063;-38
2022/04/26 12:04:19;;;;;;;10.50;7.30;;;16.20;99.90;;;;;;12503034;28;20125;-37
2022/04/26 12:10:33;;;;;;;9.43;7.45;;;16.60;99.90;;;;;;12493773;28;20056;-37
2022/04/26 12:16:39;;;;;;;10.40;7.47;;;16.40;99.90;;;;;;12491039;28;20064;-36
2022/04/26 12:22:41;;;;;;;9.57;6.68;;;15.60;99.90;;;;;;12498858;28;20075;-38
2022/04/26 12:28:50;;;;;;;9.98;6.82;;;14.80;99.90;;;;;;12492510;28;20417;-36
2022/04/26 12:34:55;;;;;;;9.02;5.93;;;14.30;99.90;;;;;;12496865;28;20052;-36
2022/04/26 12:41:05;;;;;;;6.88;5.38;;;14.70;99.90;;;;;;12491702;28;20466;-37
2022/04/26 12:53:34;;;;;;;11.57;4.57;;;16.60;99.90;;;;;;12489130;28;20057;-39
2022/04/26 12:59:37;;;;;;;7.90;4.95;;;17.20;99.90;;;;;;12493293;28;20056;-36
2022/04/26 13:05:44;;;;;;;8.27;5.88;;;16.30;99.90;;;;;;12496614;28;20441;-38
2022/04/26 13:11:48;;;;;;;8.35;5.70;;;15.60;99.90;;;;;;12494687;28;20073;-36
2022/04/26 13:17:50;;;;;;;9.88;6.50;;;15.00;99.90;;;;;;12492611;28;20133;-38
2022/04/26 13:23:54;;;;;;;10.75;5.80;;;14.70;99.90;;;;;;12489442;28;20045;-38
2022/04/26 13:29:56;;;;;;;8.32;5.55;;;15.60;99.90;;;;;;12489675;28;20053;-38
2022/04/26 13:35:57;;;;;;;9.52;6.38;;;16.10;99.90;;;;;;12482161;28;20090;-39
2022/04/26 13:41:59;;;;;;;8.48;5.47;;;16.30;99.90;;;;;;12489075;28;20578;-36
2022/04/26 13:48:08;;;;;;;10.20;5.95;;;15.60;99.90;;;;;;12491726;28;20139;-37
2022/04/26 13:54:10;;;;;;;9.38;6.28;;;15.20;99.90;;;;;;12488147;28;20140;-37
2022/04/26 14:00:16;;;;;;;8.65;5.93;;;14.90;99.90;;;;;;12491045;28;20111;-38
2022/04/26 14:06:21;;;;;;;10.68;6.32;;;14.70;99.90;;;;;;12489996;28;20061;-38
2022/04/26 14:12:24;;;;;;;8.55;6.10;;;14.60;99.90;;;;;;12490619;28;20518;-36
2022/04/26 14:24:52;;;;;;;10.13;6.95;;;14.60;99.90;;;;;;12491340;28;20052;-38
2022/04/26 14:30:54;;;;;;;9.32;6.80;;;14.60;99.90;;;;;;12492426;28;20084;-35
2022/04/26 14:36:58;;;;;;;12.10;6.97;;;14.50;99.90;;;;;;12497522;28;20053;-37
2022/04/26 14:43:00;;;;;;;11.05;7.50;;;14.20;99.90;;;;;;12484460;28;20271;-37
2022/04/26 14:49:04;;;;;;;10.30;7.63;;;14.20;99.90;;;;;;12488830;28;20482;-36
2022/04/26 14:55:08;;;;;;;9.40;6.73;;;14.00;99.90;;;;;;12492563;28;20084;-37
2022/04/26 15:01:10;;;;;;;8.95;6.63;;;13.80;99.90;;;;;;12497601;28;20449;-36
2022/04/26 15:07:12;;;;;;;9.48;7.05;;;13.70;99.90;;;;;;12491901;28;20057;-37
2022/04/26 15:19:37;;;;;;;9.52;7.30;;;13.50;99.90;;;;;;12498413;28;20057;-36
2022/04/26 15:25:40;;;;;;;12.05;7.28;;;13.30;99.90;;;;;;12500134;28;20093;-39
2022/04/26 15:31:42;;;;;;;13.35;6.85;;;13.40;99.90;;;;;;12508752;28;20041;-37
2022/04/26 15:37:44;;;;;;;10.15;6.95;;;13.30;99.90;;;;;;12508749;28;20053;-36
2022/04/26 15:43:47;;;;;;;10.07;5.75;;;13.30;99.90;;;;;;12506485;28;20049;-35
2022/04/26 15:50:09;;;;;;;9.70;6.80;;;13.40;99.90;;;;;;12503171;28;20167;-37
2022/04/26 15:56:13;;;;;;;10.77;6.47;;;13.90;99.90;;;;;;12504425;28;20148;-42
2022/04/26 16:02:17;;;;;;;8.75;6.18;;;14.10;99.90;;;;;;12510379;28;20056;-37
2022/04/26 16:08:20;;;;;;;7.90;5.77;;;14.40;99.90;;;;;;12507153;28;20060;-36
2022/04/26 16:20:43;;;;;;;10.68;6.72;;;15.40;99.90;;;;;;12501042;28;20662;-37
2022/04/26 16:26:45;;;;;;;9.70;6.63;;;15.80;99.90;;;;;;12506431;28;20071;-37
2022/04/26 16:32:48;;;;;;;10.85;5.65;;;16.00;99.90;;;;;;12499836;28;20050;-36
2022/04/26 16:38:50;;;;;;;10.13;6.07;;;16.00;99.90;;;;;;12499222;28;20451;-36
2022/04/26 16:44:54;;;;;;;11.98;6.60;;;15.90;99.90;;;;;;12501597;28;20115;-37
2022/04/26 16:50:56;;;;;;;7.75;6.15;;;15.80;99.90;;;;;;12507240;28;20414;-37
2022/04/26 16:56:58;;;;;;;8.75;5.82;;;15.80;99.90;;;;;;12505974;28;20174;-37
2022/04/26 17:03:00;;;;;;;12.50;5.60;;;15.80;99.90;;;;;;12502653;28;20049;-37
2022/04/26 17:09:02;;;;;;;8.57;4.47;;;15.90;99.90;;;;;;12505673;28;20102;-37
2022/04/26 17:15:06;;;;;;;5.35;3.30;;;15.90;99.90;;;;;;12496389;28;20041;-36
2022/04/26 17:21:10;;;;;;;;;;;15.80;99.90;;;;;;12505264;28;20127;-35
2022/04/26 17:27:12;;;;;;;6.28;4.00;;;16.00;99.90;;;;;;12504945;28;20054;-37
2022/04/26 17:33:14;;;;;;;5.90;4.15;;;15.30;99.90;;;;;;12496779;28;20045;-36
2022/04/26 17:39:16;;;;;;;8.70;4.95;;;14.70;99.90;;;;;;12510518;28;20664;-35
2022/04/26 17:45:23;;;;;;;8.73;6.05;;;14.40;99.90;;;;;;12496232;28;20728;-35
2022/04/26 17:51:26;;;;;;;8.27;5.82;;;14.10;99.90;;;;;;12497108;28;20397;-37
2022/04/26 17:57:28;;;;;;;7.55;5.53;;;14.00;99.90;;;;;;12501799;28;20615;-35
2022/04/26 18:03:30;;;;;;;9.55;6.30;;;13.90;99.90;;;;;;12498062;28;20409;-35
2022/04/26 18:09:38;;;;;;;13.95;7.00;;;13.70;99.90;;;;;;12494560;28;20111;-36
2022/04/26 18:15:40;;;;;;;12.07;7.28;;;13.40;99.90;;;;;;12501393;28;20057;-37
2022/04/26 18:21:42;;;;;;;11.18;6.85;;;13.20;99.90;;;;;;12497350;28;20049;-35
2022/04/26 18:27:47;;;;;;;11.57;7.47;;;13.10;99.90;;;;;;12499844;28;20053;-35
2022/04/26 18:33:51;;;;;;;10.30;7.90;;;13.00;99.90;;;;;;12504115;28;20497;-35
2022/04/26 18:39:53;;;;;;;10.40;7.77;;;12.90;99.90;;;;;;12496837;28;20054;-38
2022/04/26 18:45:58;;;;;;;11.45;7.15;;;12.80;99.90;;;;;;12499218;28;20412;-35
2022/04/26 18:52:01;;;;;;;13.70;7.78;;;12.70;99.90;;;;;;12496510;28;20053;-37
2022/04/26 18:58:04;;;;;;;14.57;7.57;;;12.50;99.90;;;;;;12499026;28;20681;-39
2022/04/26 19:04:06;;;;;;;10.55;6.78;;;12.30;99.90;;;;;;12505924;28;20050;-38
2022/04/26 19:16:29;;;;;;;12.85;7.43;;;12.20;99.90;;;;;;12503470;28;20072;-39
2022/04/26 19:22:32;;;;;;;10.60;7.05;;;12.10;99.90;;;;;;12510434;28;20053;-38
2022/04/26 19:28:34;;;;;;;14.07;8.02;;;12.00;99.90;;;;;;12500249;28;20111;-39
2022/04/26 19:34:36;;;;;;;13.00;7.75;;;11.90;99.90;;;;;;12493684;28;20046;-37
2022/04/26 19:40:39;;;;;;;10.23;7.05;;;11.80;99.90;;;;;;12506694;28;20140;-39
2022/04/26 19:46:41;;;;;;;8.95;6.38;;;11.60;99.90;;;;;;12501843;28;20077;-37
2022/04/26 19:52:43;;;;;;;11.35;6.72;;;11.70;99.90;;;;;;12498725;28;20520;-38
2022/04/26 19:58:46;;;;;;;11.38;6.18;;;11.40;99.90;;;;;;12501000;28;20413;-39
2022/04/26 20:04:48;;;;;;;10.90;5.07;;;11.20;99.90;;;;;;12500348;28;20065;-39
2022/04/26 20:10:52;;;;;;;13.00;5.13;;;11.00;99.90;;;;;;12501588;28;20042;-40
2022/04/26 20:16:55;;;;;;;9.88;4.40;;;10.90;99.90;;;;;;12502580;28;20141;-39
2022/04/26 20:22:58;;;;;;;11.48;4.10;;;10.60;99.90;;;;;;12498794;28;20456;-39
2022/04/26 20:35:21;;;;;;;9.80;3.90;;;10.20;99.90;;;;;;12496286;28;20053;-39
2022/04/26 20:41:23;;;;;;;13.15;4.18;;;10.00;99.90;;;;;;12495739;28;20076;-38
2022/04/26 20:47:25;;;;;;;9.55;4.40;;;9.90;99.90;;;;;;12505998;28;20064;-37
2022/04/26 20:53:27;;;;;;;10.40;4.50;;;9.60;99.90;;;;;;12497321;28;20049;-37
2022/04/26 20:59:31;;;;;;;11.90;4.28;;;9.60;99.90;;;;;;12496261;28;20048;-37
2022/04/26 21:05:34;;;;;;;12.18;4.85;;;9.60;99.90;;;;;;12499349;28;20136;-38
2022/04/26 21:11:37;;;;;;;8.77;3.80;;;9.50;99.90;;;;;;12499516;28;20099;-38
2022/04/26 21:17:39;;;;;;;10.18;4.30;;;9.60;99.90;;;;;;12498043;28;20048;-40
2022/04/26 21:23:41;;;;;;;14.60;4.28;;;9.20;99.90;;;;;;12495353;28;20057;-37
2022/04/26 21:29:43;;;;;;;8.18;4.22;;;9.20;99.90;;;;;;12495110;28;20339;-37
2022/04/26 21:36:05;;;;;;;7.38;4.18;;;9.10;99.90;;;;;;12493966;28;20973;-39
2022/04/26 21:42:08;;;;;;;14.80;4.22;;;9.20;99.90;;;;;;12497964;28;20052;-38
2022/04/26 21:48:10;;;;;;;9.65;4.28;;;9.00;99.90;;;;;;12492239;28;20499;-37
2022/04/26 21:54:17;;;;;;;9.38;4.05;;;9.00;99.90;;;;;;12502149;28;20521;-37
2022/04/26 22:00:20;;;;;;;9.48;3.83;;;9.00;99.90;;;;;;12493234;28;20064;-37
2022/04/26 22:06:22;;;;;;;11.90;4.90;;;8.70;99.90;;;;;;12495961;28;20045;-37
2022/04/26 22:12:25;;;;;;;9.05;3.63;;;8.60;99.90;;;;;;12492044;28;20033;-39
2022/04/26 22:18:28;;;;;;;9.15;3.65;;;8.60;99.90;;;;;;12491130;28;20065;-38
2022/04/26 22:24:31;;;;;;;13.30;3.65;;;8.60;99.90;;;;;;12491680;28;20045;-38
2022/04/26 22:30:34;;;;;;;12.00;3.83;;;8.50;99.90;;;;;;12493134;28;20056;-37
2022/04/26 22:36:38;;;;;;;12.13;3.80;;;8.40;99.90;;;;;;12500665;28;20056;-39
2022/04/26 22:42:40;;;;;;;6.38;3.63;;;8.60;99.90;;;;;;12502283;28;20466;-37
2022/04/26 22:48:42;;;;;;;8.10;3.80;;;8.50;99.90;;;;;;12506275;28;20149;-38
2022/04/26 22:54:44;;;;;;;9.68;3.75;;;8.60;99.90;;;;;;12508873;28;20053;-38
2022/04/26 23:00:46;;;;;;;6.80;4.30;;;8.50;99.90;;;;;;12501474;28;20519;-37
2022/04/26 23:06:49;;;;;;;11.48;4.72;;;8.20;99.90;;;;;;12504822;28;20078;-37
2022/04/26 23:12:51;;;;;;;6.70;4.38;;;8.10;99.90;;;;;;12502013;28;20041;-38
2022/04/26 23:18:53;;;;;;;11.43;5.25;;;8.20;99.90;;;;;;12504459;28;20152;-39
2022/04/26 23:24:55;;;;;;;11.50;4.82;;;8.10;99.90;;;;;;12501336;28;20049;-38
2022/04/26 23:30:57;;;;;;;12.40;4.90;;;8.20;99.90;;;;;;12499832;28;20041;-37
2022/04/26 23:36:59;;;;;;;8.57;5.10;;;8.10;99.90;;;;;;12504277;28;20057;-38
2022/04/26 23:43:01;;;;;;;7.93;4.50;;;8.10;99.90;;;;;;12504404;28;20084;-38
2022/04/26 23:49:04;;;;;;;9.98;4.88;;;8.10;99.90;;;;;;12505710;28;20303;-37
2022/04/26 23:55:06;;;;;;;10.13;4.63;;;8.20;99.90;;;;;;12503373;28;20060;-37
